Airfield :
LOGIN :

Register | Disclaimer

   EN    FR    IT 

 










Legend :    VFR   Marginal VFR   IFR   Intensive IFR   Very Intensive IFR
Visi :
Ceiling :
>= 8 km
>= 3000ft
5 to 8 km
1000 to 3000 ft
1500m to 5 km
500 to 1000 ft
800 to 1500m
200 to 500 ft
< 800m
< 200 ft
Symbols :   Thunderstorms  Fog  Heavy snow  Heavy precipitations  Wind > 20 kt
SIGMETs :     Misc.  Thunderstorms  Icing  Turbulence  Mountain Waves  Volcanic Ashes






- Airport Elevation : 101 ft
- IATA code : GLO


EGBJ - Gloucestershire

CURRENT METAR :
  • 271150Z 34003KT 9999 FEW045 22/10 Q1036

EXPIRED METARs :
  • 271120Z 34003KT CAVOK 20/10 Q1036
  • 271050Z 35004KT 300V050 9999 FEW035 19/09 Q1036
  • 271020Z 33004KT 300V010 9999 BKN044 19/08 Q1036
  • 270950Z 35005KT 320V020 9999 BKN040 18/08 Q1036
  • 270920Z 03003KT 9999 BKN040 18/08 Q1036

TAF TAF EGBJ
Valid from the 27 at 09:00 until the 27 at 18:00 UTC


270825Z 2709/2718 01004KT 9999 SCT045



MET'MAP, your aeronautical weather chart ! - Copyright ORBIFLY December 2007 - Disclaimer

ORBIFLY MET'MAP TEAM :

Programming & Development : Alexandra Zaïnal
Concept & original design : Baudouin d'Aumeries
Assistance for programming : Marc-Olivier Méhu
Technical & hardware support : Manuel Goepfert

Contact : metmap@orbifly.com




SOURCES & CREDITS :

   NOAA